sensor_id;sensor_type;location;lat;lon;timestamp;P1;durP1;ratioP1;P2;durP2;ratioP2
17949;SDS011;9100;48.700;9.316;2023-05-10T00:00:42;1.6;;;1.5;;
17949;SDS011;9100;48.700;9.316;2023-05-10T00:01:42;1.6;;;1.5;;
17949;SDS011;9100;48.700;9.316;2023-05-10T00:02:43;1.6;;;1.5;;
17949;SDS011;9100;48.700;9.316;2023-05-10T00:03:42;1.6;;;1.5;;
17949;SDS011;9100;48.700;9.316;2023-05-10T00:04:42;1.6;;;1.5;;
17949;SDS011;9100;48.700;9.316;2023-05-10T00:04:49;1.6;;;1.5;;
17949;SDS011;9100;48.700;9.316;2023-05-10T00:05:43;1.6;;;1.5;;
17949;SDS011;9100;48.700;9.316;2023-05-10T00:06:43;1.6;;;1.5;;
17949;SDS011;9100;48.700;9.316;2023-05-10T00:07:42;1.6;;;1.5;;
17949;SDS011;9100;48.700;9.316;2023-05-10T00:08:43;1.6;;;1.5;;
17949;SDS011;9100;48.700;9.316;2023-05-10T00:09:42;1.6;;;1.5;;
17949;SDS011;9100;48.700;9.316;2023-05-10T00:09:48;2.3;;;1.6;;
17949;SDS011;9100;48.700;9.316;2023-05-10T00:10:42;2.3;;;1.6;;
17949;SDS011;9100;48.700;9.316;2023-05-10T00:11:42;2.3;;;1.6;;
17949;SDS011;9100;48.700;9.316;2023-05-10T00:12:42;2.3;;;1.6;;
17949;SDS011;9100;48.700;9.316;2023-05-10T00:13:42;2.3;;;1.6;;
17949;SDS011;9100;48.700;9.316;2023-05-10T00:14:42;2.3;;;1.6;;
17949;SDS011;9100;48.700;9.316;2023-05-10T00:14:48;1.9;;;1.8;;
17949;SDS011;9100;48.700;9.316;2023-05-10T00:15:43;1.9;;;1.8;;
17949;SDS011;9100;48.700;9.316;2023-05-10T00:16:42;1.9;;;1.8;;
17949;SDS011;9100;48.700;9.316;2023-05-10T00:17:42;1.9;;;1.8;;
17949;SDS011;9100;48.700;9.316;2023-05-10T00:18:43;1.9;;;1.8;;
17949;SDS011;9100;48.700;9.316;2023-05-10T00:19:42;1.9;;;1.8;;
17949;SDS011;9100;48.700;9.316;2023-05-10T00:19:48;2;;;1.6;;
17949;SDS011;9100;48.700;9.316;2023-05-10T00:20:43;2;;;1.6;;
17949;SDS011;9100;48.700;9.316;2023-05-10T00:21:42;2;;;1.6;;
17949;SDS011;9100;48.700;9.316;2023-05-10T00:22:42;2;;;1.6;;
17949;SDS011;9100;48.700;9.316;2023-05-10T00:23:42;2;;;1.6;;
17949;SDS011;9100;48.700;9.316;2023-05-10T00:24:43;2;;;1.6;;
17949;SDS011;9100;48.700;9.316;2023-05-10T00:24:48;2.5;;;1.4;;
17949;SDS011;9100;48.700;9.316;2023-05-10T00:25:43;2.5;;;1.4;;
17949;SDS011;9100;48.700;9.316;2023-05-10T00:26:43;2.5;;;1.4;;
17949;SDS011;9100;48.700;9.316;2023-05-10T00:27:43;2.5;;;1.4;;
17949;SDS011;9100;48.700;9.316;2023-05-10T00:28:43;2.5;;;1.4;;
17949;SDS011;9100;48.700;9.316;2023-05-10T00:29:43;2.5;;;1.4;;
17949;SDS011;9100;48.700;9.316;2023-05-10T00:29:49;1.4;;;1.3;;
17949;SDS011;9100;48.700;9.316;2023-05-10T00:30:43;1.4;;;1.3;;
17949;SDS011;9100;48.700;9.316;2023-05-10T00:31:43;1.4;;;1.3;;
17949;SDS011;9100;48.700;9.316;2023-05-10T00:32:43;1.4;;;1.3;;
17949;SDS011;9100;48.700;9.316;2023-05-10T00:33:43;1.4;;;1.3;;
17949;SDS011;9100;48.700;9.316;2023-05-10T00:34:43;1.4;;;1.3;;
17949;SDS011;9100;48.700;9.316;2023-05-10T00:34:48;1.2;;;1.1;;
17949;SDS011;9100;48.700;9.316;2023-05-10T00:35:43;1.2;;;1.1;;
17949;SDS011;9100;48.700;9.316;2023-05-10T00:36:43;1.2;;;1.1;;
17949;SDS011;9100;48.700;9.316;2023-05-10T00:37:43;1.2;;;1.1;;
17949;SDS011;9100;48.700;9.316;2023-05-10T00:38:43;1.2;;;1.1;;
17949;SDS011;9100;48.700;9.316;2023-05-10T00:39:42;1.2;;;1.1;;
17949;SDS011;9100;48.700;9.316;2023-05-10T00:39:48;0.8;;;0.7;;
17949;SDS011;9100;48.700;9.316;2023-05-10T00:40:43;0.8;;;0.7;;
17949;SDS011;9100;48.700;9.316;2023-05-10T00:41:43;0.8;;;0.7;;
17949;SDS011;9100;48.700;9.316;2023-05-10T00:42:42;0.8;;;0.7;;
17949;SDS011;9100;48.700;9.316;2023-05-10T00:43:42;0.8;;;0.7;;
17949;SDS011;9100;48.700;9.316;2023-05-10T00:44:42;0.8;;;0.7;;
17949;SDS011;9100;48.700;9.316;2023-05-10T00:44:48;0.8;;;0.6;;
17949;SDS011;9100;48.700;9.316;2023-05-10T00:45:42;0.8;;;0.6;;
17949;SDS011;9100;48.700;9.316;2023-05-10T00:46:42;0.8;;;0.6;;
17949;SDS011;9100;48.700;9.316;2023-05-10T00:47:43;0.8;;;0.6;;
17949;SDS011;9100;48.700;9.316;2023-05-10T00:48:43;0.8;;;0.6;;
17949;SDS011;9100;48.700;9.316;2023-05-10T00:49:43;0.8;;;0.6;;
17949;SDS011;9100;48.700;9.316;2023-05-10T00:49:48;0.7;;;0.7;;
17949;SDS011;9100;48.700;9.316;2023-05-10T00:50:43;0.7;;;0.7;;
17949;SDS011;9100;48.700;9.316;2023-05-10T00:51:42;0.7;;;0.7;;
17949;SDS011;9100;48.700;9.316;2023-05-10T00:52:43;0.7;;;0.7;;
17949;SDS011;9100;48.700;9.316;2023-05-10T00:53:43;0.7;;;0.7;;
17949;SDS011;9100;48.700;9.316;2023-05-10T00:54:42;0.7;;;0.7;;
17949;SDS011;9100;48.700;9.316;2023-05-10T00:54:49;1;;;0.5;;
17949;SDS011;9100;48.700;9.316;2023-05-10T00:55:42;1;;;0.5;;
17949;SDS011;9100;48.700;9.316;2023-05-10T00:56:42;1;;;0.5;;
17949;SDS011;9100;48.700;9.316;2023-05-10T00:57:42;1;;;0.5;;
17949;SDS011;9100;48.700;9.316;2023-05-10T00:58:42;1;;;0.5;;
17949;SDS011;9100;48.700;9.316;2023-05-10T00:59:43;1;;;0.5;;
17949;SDS011;9100;48.700;9.316;2023-05-10T00:59:48;0.7;;;0.6;;
17949;SDS011;9100;48.700;9.316;2023-05-10T01:00:43;0.7;;;0.6;;
17949;SDS011;9100;48.700;9.316;2023-05-10T01:01:43;0.7;;;0.6;;
17949;SDS011;9100;48.700;9.316;2023-05-10T01:02:43;0.7;;;0.6;;
17949;SDS011;9100;48.700;9.316;2023-05-10T01:03:43;0.7;;;0.6;;
17949;SDS011;9100;48.700;9.316;2023-05-10T01:04:43;0.7;;;0.6;;
17949;SDS011;9100;48.700;9.316;2023-05-10T01:04:48;0.6;;;0.6;;
17949;SDS011;9100;48.700;9.316;2023-05-10T01:05:43;0.6;;;0.6;;
17949;SDS011;9100;48.700;9.316;2023-05-10T01:06:43;0.6;;;0.6;;
17949;SDS011;9100;48.700;9.316;2023-05-10T01:07:43;0.6;;;0.6;;
17949;SDS011;9100;48.700;9.316;2023-05-10T01:08:43;0.6;;;0.6;;
17949;SDS011;9100;48.700;9.316;2023-05-10T01:09:42;0.6;;;0.6;;
17949;SDS011;9100;48.700;9.316;2023-05-10T01:09:48;0.6;;;0.6;;
17949;SDS011;9100;48.700;9.316;2023-05-10T01:10:42;0.6;;;0.6;;
17949;SDS011;9100;48.700;9.316;2023-05-10T01:11:42;0.6;;;0.6;;
17949;SDS011;9100;48.700;9.316;2023-05-10T01:12:43;0.6;;;0.6;;
17949;SDS011;9100;48.700;9.316;2023-05-10T01:13:43;0.6;;;0.6;;
17949;SDS011;9100;48.700;9.316;2023-05-10T01:14:42;0.6;;;0.6;;
17949;SDS011;9100;48.700;9.316;2023-05-10T01:14:48;0.6;;;0.5;;
17949;SDS011;9100;48.700;9.316;2023-05-10T01:15:42;0.6;;;0.5;;
17949;SDS011;9100;48.700;9.316;2023-05-10T01:16:42;0.6;;;0.5;;
17949;SDS011;9100;48.700;9.316;2023-05-10T01:17:43;0.6;;;0.5;;
17949;SDS011;9100;48.700;9.316;2023-05-10T01:18:42;0.6;;;0.5;;
17949;SDS011;9100;48.700;9.316;2023-05-10T01:19:42;0.6;;;0.5;;
17949;SDS011;9100;48.700;9.316;2023-05-10T01:19:49;0.8;;;0.6;;
17949;SDS011;9100;48.700;9.316;2023-05-10T01:20:43;0.8;;;0.6;;
17949;SDS011;9100;48.700;9.316;2023-05-10T01:21:44;0.8;;;0.6;;
17949;SDS011;9100;48.700;9.316;2023-05-10T01:22:50;0.8;;;0.6;;
17949;SDS011;9100;48.700;9.316;2023-05-10T01:23:45;0.8;;;0.6;;
17949;SDS011;9100;48.700;9.316;2023-05-10T01:24:49;0.8;;;0.6;;
17949;SDS011;9100;48.700;9.316;2023-05-10T01:25:01;1.1;;;0.7;;
17949;SDS011;9100;48.700;9.316;2023-05-10T01:25:56;1.1;;;0.7;;
17949;SDS011;9100;48.700;9.316;2023-05-10T01:26:51;1.1;;;0.7;;
17949;SDS011;9100;48.700;9.316;2023-05-10T01:27:47;1.1;;;0.7;;
17949;SDS011;9100;48.700;9.316;2023-05-10T01:28:49;1.1;;;0.7;;
17949;SDS011;9100;48.700;9.316;2023-05-10T01:29:47;1.1;;;0.7;;
17949;SDS011;9100;48.700;9.316;2023-05-10T01:29:58;1.6;;;0.8;;
17949;SDS011;9100;48.700;9.316;2023-05-10T01:30:48;1.6;;;0.8;;
17949;SDS011;9100;48.700;9.316;2023-05-10T01:32:01;1.6;;;0.8;;
17949;SDS011;9100;48.700;9.316;2023-05-10T01:32:43;1.6;;;0.8;;
17949;SDS011;9100;48.700;9.316;2023-05-10T01:33:43;1.6;;;0.8;;
17949;SDS011;9100;48.700;9.316;2023-05-10T01:34:46;1.6;;;0.8;;
17949;SDS011;9100;48.700;9.316;2023-05-10T01:34:52;3.8;;;0.5;;
17949;SDS011;9100;48.700;9.316;2023-05-10T01:35:45;3.8;;;0.5;;
17949;SDS011;9100;48.700;9.316;2023-05-10T01:36:43;3.8;;;0.5;;
17949;SDS011;9100;48.700;9.316;2023-05-10T01:37:44;3.8;;;0.5;;
17949;SDS011;9100;48.700;9.316;2023-05-10T01:38:44;3.8;;;0.5;;
17949;SDS011;9100;48.700;9.316;2023-05-10T01:39:44;3.8;;;0.5;;
17949;SDS011;9100;48.700;9.316;2023-05-10T01:39:49;0.8;;;0.5;;
17949;SDS011;9100;48.700;9.316;2023-05-10T01:40:46;0.8;;;0.5;;
17949;SDS011;9100;48.700;9.316;2023-05-10T01:41:45;0.8;;;0.5;;
17949;SDS011;9100;48.700;9.316;2023-05-10T01:42:44;0.8;;;0.5;;
17949;SDS011;9100;48.700;9.316;2023-05-10T01:43:44;0.8;;;0.5;;
17949;SDS011;9100;48.700;9.316;2023-05-10T01:44:45;0.8;;;0.5;;
17949;SDS011;9100;48.700;9.316;2023-05-10T01:44:49;0.6;;;0.5;;
17949;SDS011;9100;48.700;9.316;2023-05-10T01:45:45;0.6;;;0.5;;
17949;SDS011;9100;48.700;9.316;2023-05-10T01:46:43;0.6;;;0.5;;
17949;SDS011;9100;48.700;9.316;2023-05-10T01:47:43;0.6;;;0.5;;
17949;SDS011;9100;48.700;9.316;2023-05-10T01:48:44;0.6;;;0.5;;
17949;SDS011;9100;48.700;9.316;2023-05-10T01:49:43;0.6;;;0.5;;
17949;SDS011;9100;48.700;9.316;2023-05-10T01:49:49;0.6;;;0.5;;
17949;SDS011;9100;48.700;9.316;2023-05-10T01:50:43;0.6;;;0.5;;
17949;SDS011;9100;48.700;9.316;2023-05-10T01:51:44;0.6;;;0.5;;
17949;SDS011;9100;48.700;9.316;2023-05-10T01:52:44;0.6;;;0.5;;
17949;SDS011;9100;48.700;9.316;2023-05-10T01:53:43;0.6;;;0.5;;
17949;SDS011;9100;48.700;9.316;2023-05-10T01:54:44;0.6;;;0.5;;
17949;SDS011;9100;48.700;9.316;2023-05-10T01:54:49;0.6;;;0.5;;
17949;SDS011;9100;48.700;9.316;2023-05-10T01:55:43;0.6;;;0.5;;
17949;SDS011;9100;48.700;9.316;2023-05-10T01:56:43;0.6;;;0.5;;
17949;SDS011;9100;48.700;9.316;2023-05-10T01:57:43;0.6;;;0.5;;
17949;SDS011;9100;48.700;9.316;2023-05-10T01:58:43;0.6;;;0.5;;
17949;SDS011;9100;48.700;9.316;2023-05-10T01:59:43;0.6;;;0.5;;
17949;SDS011;9100;48.700;9.316;2023-05-10T01:59:49;0.5;;;0.4;;
17949;SDS011;9100;48.700;9.316;2023-05-10T02:00:43;0.5;;;0.4;;
17949;SDS011;9100;48.700;9.316;2023-05-10T02:01:42;0.5;;;0.4;;
17949;SDS011;9100;48.700;9.316;2023-05-10T02:02:44;0.5;;;0.4;;
17949;SDS011;9100;48.700;9.316;2023-05-10T02:03:42;0.5;;;0.4;;
17949;SDS011;9100;48.700;9.316;2023-05-10T02:04:42;0.5;;;0.4;;
17949;SDS011;9100;48.700;9.316;2023-05-10T02:04:49;0.6;;;0.5;;
17949;SDS011;9100;48.700;9.316;2023-05-10T02:05:43;0.6;;;0.5;;
17949;SDS011;9100;48.700;9.316;2023-05-10T02:06:43;0.6;;;0.5;;
17949;SDS011;9100;48.700;9.316;2023-05-10T02:07:43;0.6;;;0.5;;
17949;SDS011;9100;48.700;9.316;2023-05-10T02:08:43;0.6;;;0.5;;
17949;SDS011;9100;48.700;9.316;2023-05-10T02:09:44;0.6;;;0.5;;
17949;SDS011;9100;48.700;9.316;2023-05-10T02:09:48;1.5;;;0.9;;
17949;SDS011;9100;48.700;9.316;2023-05-10T02:10:43;1.5;;;0.9;;
17949;SDS011;9100;48.700;9.316;2023-05-10T02:11:43;1.5;;;0.9;;
17949;SDS011;9100;48.700;9.316;2023-05-10T02:12:43;1.5;;;0.9;;
17949;SDS011;9100;48.700;9.316;2023-05-10T02:13:43;1.5;;;0.9;;
17949;SDS011;9100;48.700;9.316;2023-05-10T02:14:43;1.5;;;0.9;;
17949;SDS011;9100;48.700;9.316;2023-05-10T02:14:48;1;;;0.6;;
17949;SDS011;9100;48.700;9.316;2023-05-10T02:15:43;1;;;0.6;;
17949;SDS011;9100;48.700;9.316;2023-05-10T02:16:43;1;;;0.6;;
17949;SDS011;9100;48.700;9.316;2023-05-10T02:17:43;1;;;0.6;;
17949;SDS011;9100;48.700;9.316;2023-05-10T02:18:42;1;;;0.6;;
17949;SDS011;9100;48.700;9.316;2023-05-10T02:19:43;1;;;0.6;;
17949;SDS011;9100;48.700;9.316;2023-05-10T02:19:49;0.8;;;0.4;;
17949;SDS011;9100;48.700;9.316;2023-05-10T02:20:43;0.8;;;0.4;;
17949;SDS011;9100;48.700;9.316;2023-05-10T02:21:43;0.8;;;0.4;;
17949;SDS011;9100;48.700;9.316;2023-05-10T02:22:43;0.8;;;0.4;;
17949;SDS011;9100;48.700;9.316;2023-05-10T02:23:43;0.8;;;0.4;;
17949;SDS011;9100;48.700;9.316;2023-05-10T02:24:43;0.8;;;0.4;;
17949;SDS011;9100;48.700;9.316;2023-05-10T02:24:49;0.6;;;0.5;;
17949;SDS011;9100;48.700;9.316;2023-05-10T02:25:43;0.6;;;0.5;;
17949;SDS011;9100;48.700;9.316;2023-05-10T02:26:42;0.6;;;0.5;;
17949;SDS011;9100;48.700;9.316;2023-05-10T02:27:43;0.6;;;0.5;;
17949;SDS011;9100;48.700;9.316;2023-05-10T02:28:43;0.6;;;0.5;;
17949;SDS011;9100;48.700;9.316;2023-05-10T02:29:43;0.6;;;0.5;;
17949;SDS011;9100;48.700;9.316;2023-05-10T02:29:48;1.4;;;0.6;;
17949;SDS011;9100;48.700;9.316;2023-05-10T02:30:43;1.4;;;0.6;;
17949;SDS011;9100;48.700;9.316;2023-05-10T02:31:43;1.4;;;0.6;;
17949;SDS011;9100;48.700;9.316;2023-05-10T02:32:43;1.4;;;0.6;;
17949;SDS011;9100;48.700;9.316;2023-05-10T02:33:43;1.4;;;0.6;;
17949;SDS011;9100;48.700;9.316;2023-05-10T02:34:43;1.4;;;0.6;;
17949;SDS011;9100;48.700;9.316;2023-05-10T02:34:49;0.7;;;0.5;;
17949;SDS011;9100;48.700;9.316;2023-05-10T02:35:42;0.7;;;0.5;;
17949;SDS011;9100;48.700;9.316;2023-05-10T02:36:42;0.7;;;0.5;;
17949;SDS011;9100;48.700;9.316;2023-05-10T02:37:43;0.7;;;0.5;;
17949;SDS011;9100;48.700;9.316;2023-05-10T02:38:43;0.7;;;0.5;;
17949;SDS011;9100;48.700;9.316;2023-05-10T02:39:42;0.7;;;0.5;;
17949;SDS011;9100;48.700;9.316;2023-05-10T02:39:49;0.6;;;0.5;;
17949;SDS011;9100;48.700;9.316;2023-05-10T02:40:43;0.6;;;0.5;;
17949;SDS011;9100;48.700;9.316;2023-05-10T02:41:43;0.6;;;0.5;;
17949;SDS011;9100;48.700;9.316;2023-05-10T02:42:43;0.6;;;0.5;;
17949;SDS011;9100;48.700;9.316;2023-05-10T02:43:43;0.6;;;0.5;;
17949;SDS011;9100;48.700;9.316;2023-05-10T02:44:43;0.6;;;0.5;;
17949;SDS011;9100;48.700;9.316;2023-05-10T02:44:49;3.2;;;0.5;;
17949;SDS011;9100;48.700;9.316;2023-05-10T02:45:43;3.2;;;0.5;;
17949;SDS011;9100;48.700;9.316;2023-05-10T02:46:43;3.2;;;0.5;;
17949;SDS011;9100;48.700;9.316;2023-05-10T02:47:42;3.2;;;0.5;;
17949;SDS011;9100;48.700;9.316;2023-05-10T02:48:42;3.2;;;0.5;;
17949;SDS011;9100;48.700;9.316;2023-05-10T02:49:43;3.2;;;0.5;;
17949;SDS011;9100;48.700;9.316;2023-05-10T02:49:48;0.6;;;0.5;;
17949;SDS011;9100;48.700;9.316;2023-05-10T02:50:44;0.6;;;0.5;;
17949;SDS011;9100;48.700;9.316;2023-05-10T02:51:44;0.6;;;0.5;;
17949;SDS011;9100;48.700;9.316;2023-05-10T02:52:44;0.6;;;0.5;;
17949;SDS011;9100;48.700;9.316;2023-05-10T02:53:43;0.6;;;0.5;;
17949;SDS011;9100;48.700;9.316;2023-05-10T02:54:43;0.6;;;0.5;;
17949;SDS011;9100;48.700;9.316;2023-05-10T02:54:49;0.7;;;0.5;;
17949;SDS011;9100;48.700;9.316;2023-05-10T02:55:42;0.7;;;0.5;;
17949;SDS011;9100;48.700;9.316;2023-05-10T02:56:45;0.7;;;0.5;;
17949;SDS011;9100;48.700;9.316;2023-05-10T02:57:43;0.7;;;0.5;;
17949;SDS011;9100;48.700;9.316;2023-05-10T02:58:43;0.7;;;0.5;;
17949;SDS011;9100;48.700;9.316;2023-05-10T02:59:43;0.7;;;0.5;;
17949;SDS011;9100;48.700;9.316;2023-05-10T02:59:48;0.6;;;0.5;;
17949;SDS011;9100;48.700;9.316;2023-05-10T03:00:43;0.6;;;0.5;;
17949;SDS011;9100;48.700;9.316;2023-05-10T03:01:43;0.6;;;0.5;;
17949;SDS011;9100;48.700;9.316;2023-05-10T03:02:42;0.6;;;0.5;;
17949;SDS011;9100;48.700;9.316;2023-05-10T03:03:42;0.6;;;0.5;;
17949;SDS011;9100;48.700;9.316;2023-05-10T03:04:43;0.6;;;0.5;;
17949;SDS011;9100;48.700;9.316;2023-05-10T03:04:48;1.2;;;0.6;;
17949;SDS011;9100;48.700;9.316;2023-05-10T03:05:43;1.2;;;0.6;;
17949;SDS011;9100;48.700;9.316;2023-05-10T03:06:43;1.2;;;0.6;;
17949;SDS011;9100;48.700;9.316;2023-05-10T03:07:43;1.2;;;0.6;;
17949;SDS011;9100;48.700;9.316;2023-05-10T03:08:43;1.2;;;0.6;;
17949;SDS011;9100;48.700;9.316;2023-05-10T03:09:43;1.2;;;0.6;;
17949;SDS011;9100;48.700;9.316;2023-05-10T03:09:48;0.6;;;0.6;;
17949;SDS011;9100;48.700;9.316;2023-05-10T03:10:46;0.6;;;0.6;;
17949;SDS011;9100;48.700;9.316;2023-05-10T03:11:45;0.6;;;0.6;;
17949;SDS011;9100;48.700;9.316;2023-05-10T03:12:46;0.6;;;0.6;;
17949;SDS011;9100;48.700;9.316;2023-05-10T03:13:44;0.6;;;0.6;;
17949;SDS011;9100;48.700;9.316;2023-05-10T03:14:45;0.6;;;0.6;;
17949;SDS011;9100;48.700;9.316;2023-05-10T03:14:49;1.2;;;0.8;;
17949;SDS011;9100;48.700;9.316;2023-05-10T03:15:47;1.2;;;0.8;;
17949;SDS011;9100;48.700;9.316;2023-05-10T03:16:44;1.2;;;0.8;;
17949;SDS011;9100;48.700;9.316;2023-05-10T03:17:45;1.2;;;0.8;;
17949;SDS011;9100;48.700;9.316;2023-05-10T03:18:44;1.2;;;0.8;;
17949;SDS011;9100;48.700;9.316;2023-05-10T03:19:43;1.2;;;0.8;;
17949;SDS011;9100;48.700;9.316;2023-05-10T03:19:51;0.8;;;0.6;;
17949;SDS011;9100;48.700;9.316;2023-05-10T03:20:43;0.8;;;0.6;;
17949;SDS011;9100;48.700;9.316;2023-05-10T03:21:43;0.8;;;0.6;;
17949;SDS011;9100;48.700;9.316;2023-05-10T03:22:44;0.8;;;0.6;;
17949;SDS011;9100;48.700;9.316;2023-05-10T03:23:43;0.8;;;0.6;;
17949;SDS011;9100;48.700;9.316;2023-05-10T03:24:42;0.8;;;0.6;;
17949;SDS011;9100;48.700;9.316;2023-05-10T03:24:49;0.6;;;0.6;;
17949;SDS011;9100;48.700;9.316;2023-05-10T03:25:43;0.6;;;0.6;;
17949;SDS011;9100;48.700;9.316;2023-05-10T03:26:43;0.6;;;0.6;;
17949;SDS011;9100;48.700;9.316;2023-05-10T03:27:43;0.6;;;0.6;;
17949;SDS011;9100;48.700;9.316;2023-05-10T03:28:43;0.6;;;0.6;;
17949;SDS011;9100;48.700;9.316;2023-05-10T03:29:43;0.6;;;0.6;;
17949;SDS011;9100;48.700;9.316;2023-05-10T03:29:48;0.9;;;0.8;;
17949;SDS011;9100;48.700;9.316;2023-05-10T03:30:43;0.9;;;0.8;;
17949;SDS011;9100;48.700;9.316;2023-05-10T03:31:43;0.9;;;0.8;;
17949;SDS011;9100;48.700;9.316;2023-05-10T03:32:43;0.9;;;0.8;;
17949;SDS011;9100;48.700;9.316;2023-05-10T03:33:46;0.9;;;0.8;;
17949;SDS011;9100;48.700;9.316;2023-05-10T03:34:43;0.9;;;0.8;;
17949;SDS011;9100;48.700;9.316;2023-05-10T03:34:48;0.9;;;0.8;;
17949;SDS011;9100;48.700;9.316;2023-05-10T03:35:43;0.9;;;0.8;;
17949;SDS011;9100;48.700;9.316;2023-05-10T03:36:43;0.9;;;0.8;;
17949;SDS011;9100;48.700;9.316;2023-05-10T03:37:43;0.9;;;0.8;;
17949;SDS011;9100;48.700;9.316;2023-05-10T03:38:43;0.9;;;0.8;;
17949;SDS011;9100;48.700;9.316;2023-05-10T03:39:42;0.9;;;0.8;;
17949;SDS011;9100;48.700;9.316;2023-05-10T03:39:48;2.3;;;0.7;;
17949;SDS011;9100;48.700;9.316;2023-05-10T03:40:43;2.3;;;0.7;;
17949;SDS011;9100;48.700;9.316;2023-05-10T03:41:43;2.3;;;0.7;;
17949;SDS011;9100;48.700;9.316;2023-05-10T03:42:43;2.3;;;0.7;;
17949;SDS011;9100;48.700;9.316;2023-05-10T03:43:43;2.3;;;0.7;;
17949;SDS011;9100;48.700;9.316;2023-05-10T03:44:43;2.3;;;0.7;;
17949;SDS011;9100;48.700;9.316;2023-05-10T03:44:48;0.6;;;0.6;;
17949;SDS011;9100;48.700;9.316;2023-05-10T03:45:43;0.6;;;0.6;;
17949;SDS011;9100;48.700;9.316;2023-05-10T03:46:43;0.6;;;0.6;;
17949;SDS011;9100;48.700;9.316;2023-05-10T03:47:43;0.6;;;0.6;;
17949;SDS011;9100;48.700;9.316;2023-05-10T03:48:43;0.6;;;0.6;;
17949;SDS011;9100;48.700;9.316;2023-05-10T03:49:43;0.6;;;0.6;;
17949;SDS011;9100;48.700;9.316;2023-05-10T03:49:48;0.6;;;0.6;;
17949;SDS011;9100;48.700;9.316;2023-05-10T03:50:43;0.6;;;0.6;;
17949;SDS011;9100;48.700;9.316;2023-05-10T03:51:43;0.6;;;0.6;;
17949;SDS011;9100;48.700;9.316;2023-05-10T03:52:43;0.6;;;0.6;;
17949;SDS011;9100;48.700;9.316;2023-05-10T03:53:43;0.6;;;0.6;;
17949;SDS011;9100;48.700;9.316;2023-05-10T03:54:43;0.6;;;0.6;;
17949;SDS011;9100;48.700;9.316;2023-05-10T03:54:48;0.7;;;0.6;;
17949;SDS011;9100;48.700;9.316;2023-05-10T03:55:43;0.7;;;0.6;;
17949;SDS011;9100;48.700;9.316;2023-05-10T03:56:43;0.7;;;0.6;;
17949;SDS011;9100;48.700;9.316;2023-05-10T03:57:43;0.7;;;0.6;;
17949;SDS011;9100;48.700;9.316;2023-05-10T03:58:43;0.7;;;0.6;;
17949;SDS011;9100;48.700;9.316;2023-05-10T03:59:43;0.7;;;0.6;;
17949;SDS011;9100;48.700;9.316;2023-05-10T03:59:49;0.8;;;0.7;;
17949;SDS011;9100;48.700;9.316;2023-05-10T04:00:43;0.8;;;0.7;;
17949;SDS011;9100;48.700;9.316;2023-05-10T04:01:43;0.8;;;0.7;;
17949;SDS011;9100;48.700;9.316;2023-05-10T04:02:43;0.8;;;0.7;;
17949;SDS011;9100;48.700;9.316;2023-05-10T04:03:43;0.8;;;0.7;;
17949;SDS011;9100;48.700;9.316;2023-05-10T04:04:43;0.8;;;0.7;;
17949;SDS011;9100;48.700;9.316;2023-05-10T04:04:49;3;;;0.8;;
17949;SDS011;9100;48.700;9.316;2023-05-10T04:05:43;3;;;0.8;;
17949;SDS011;9100;48.700;9.316;2023-05-10T04:06:43;3;;;0.8;;
17949;SDS011;9100;48.700;9.316;2023-05-10T04:07:43;3;;;0.8;;
17949;SDS011;9100;48.700;9.316;2023-05-10T04:08:43;3;;;0.8;;
17949;SDS011;9100;48.700;9.316;2023-05-10T04:09:43;3;;;0.8;;
17949;SDS011;9100;48.700;9.316;2023-05-10T04:09:49;1.3;;;1.2;;
17949;SDS011;9100;48.700;9.316;2023-05-10T04:10:43;1.3;;;1.2;;
17949;SDS011;9100;48.700;9.316;2023-05-10T04:11:43;1.3;;;1.2;;
17949;SDS011;9100;48.700;9.316;2023-05-10T04:12:43;1.3;;;1.2;;
17949;SDS011;9100;48.700;9.316;2023-05-10T04:13:43;1.3;;;1.2;;
17949;SDS011;9100;48.700;9.316;2023-05-10T04:14:43;1.3;;;1.2;;
17949;SDS011;9100;48.700;9.316;2023-05-10T04:14:49;1;;;0.9;;
17949;SDS011;9100;48.700;9.316;2023-05-10T04:15:43;1;;;0.9;;
17949;SDS011;9100;48.700;9.316;2023-05-10T04:16:43;1;;;0.9;;
17949;SDS011;9100;48.700;9.316;2023-05-10T04:17:43;1;;;0.9;;
17949;SDS011;9100;48.700;9.316;2023-05-10T04:18:43;1;;;0.9;;
17949;SDS011;9100;48.700;9.316;2023-05-10T04:19:43;1;;;0.9;;
17949;SDS011;9100;48.700;9.316;2023-05-10T04:19:48;2.1;;;0.8;;
17949;SDS011;9100;48.700;9.316;2023-05-10T04:20:43;2.1;;;0.8;;
17949;SDS011;9100;48.700;9.316;2023-05-10T04:21:43;2.1;;;0.8;;
17949;SDS011;9100;48.700;9.316;2023-05-10T04:22:43;2.1;;;0.8;;
17949;SDS011;9100;48.700;9.316;2023-05-10T04:23:43;2.1;;;0.8;;
17949;SDS011;9100;48.700;9.316;2023-05-10T04:24:43;2.1;;;0.8;;
17949;SDS011;9100;48.700;9.316;2023-05-10T04:24:48;0.8;;;0.7;;
17949;SDS011;9100;48.700;9.316;2023-05-10T04:25:43;0.8;;;0.7;;
17949;SDS011;9100;48.700;9.316;2023-05-10T04:26:43;0.8;;;0.7;;
17949;SDS011;9100;48.700;9.316;2023-05-10T04:27:43;0.8;;;0.7;;
17949;SDS011;9100;48.700;9.316;2023-05-10T04:28:43;0.8;;;0.7;;
17949;SDS011;9100;48.700;9.316;2023-05-10T04:29:43;0.8;;;0.7;;
17949;SDS011;9100;48.700;9.316;2023-05-10T04:29:48;4.5;;;0.8;;
17949;SDS011;9100;48.700;9.316;2023-05-10T04:30:43;4.5;;;0.8;;
17949;SDS011;9100;48.700;9.316;2023-05-10T04:31:43;4.5;;;0.8;;
17949;SDS011;9100;48.700;9.316;2023-05-10T04:32:43;4.5;;;0.8;;
17949;SDS011;9100;48.700;9.316;2023-05-10T04:33:43;4.5;;;0.8;;
17949;SDS011;9100;48.700;9.316;2023-05-10T04:34:43;4.5;;;0.8;;
17949;SDS011;9100;48.700;9.316;2023-05-10T04:34:48;1;;;0.9;;
17949;SDS011;9100;48.700;9.316;2023-05-10T04:35:43;1;;;0.9;;
17949;SDS011;9100;48.700;9.316;2023-05-10T04:36:43;1;;;0.9;;
17949;SDS011;9100;48.700;9.316;2023-05-10T04:37:43;1;;;0.9;;
17949;SDS011;9100;48.700;9.316;2023-05-10T04:38:43;1;;;0.9;;
17949;SDS011;9100;48.700;9.316;2023-05-10T04:39:43;1;;;0.9;;
17949;SDS011;9100;48.700;9.316;2023-05-10T04:39:48;2.1;;;0.9;;
17949;SDS011;9100;48.700;9.316;2023-05-10T04:40:43;2.1;;;0.9;;
17949;SDS011;9100;48.700;9.316;2023-05-10T04:41:43;2.1;;;0.9;;
17949;SDS011;9100;48.700;9.316;2023-05-10T04:42:43;2.1;;;0.9;;
17949;SDS011;9100;48.700;9.316;2023-05-10T04:43:43;2.1;;;0.9;;
17949;SDS011;9100;48.700;9.316;2023-05-10T04:44:43;2.1;;;0.9;;
17949;SDS011;9100;48.700;9.316;2023-05-10T04:44:49;1.2;;;1.1;;
17949;SDS011;9100;48.700;9.316;2023-05-10T04:45:43;1.2;;;1.1;;
17949;SDS011;9100;48.700;9.316;2023-05-10T04:46:43;1.2;;;1.1;;
17949;SDS011;9100;48.700;9.316;2023-05-10T04:47:43;1.2;;;1.1;;
17949;SDS011;9100;48.700;9.316;2023-05-10T04:48:43;1.2;;;1.1;;
17949;SDS011;9100;48.700;9.316;2023-05-10T04:49:43;1.2;;;1.1;;
17949;SDS011;9100;48.700;9.316;2023-05-10T04:49:48;4;;;1.2;;
17949;SDS011;9100;48.700;9.316;2023-05-10T04:50:43;4;;;1.2;;
17949;SDS011;9100;48.700;9.316;2023-05-10T04:51:43;4;;;1.2;;
17949;SDS011;9100;48.700;9.316;2023-05-10T04:52:43;4;;;1.2;;
17949;SDS011;9100;48.700;9.316;2023-05-10T04:53:43;4;;;1.2;;
17949;SDS011;9100;48.700;9.316;2023-05-10T04:54:43;4;;;1.2;;
17949;SDS011;9100;48.700;9.316;2023-05-10T04:54:48;3.6;;;1.1;;
17949;SDS011;9100;48.700;9.316;2023-05-10T04:55:43;3.6;;;1.1;;
17949;SDS011;9100;48.700;9.316;2023-05-10T04:56:43;3.6;;;1.1;;
17949;SDS011;9100;48.700;9.316;2023-05-10T04:57:43;3.6;;;1.1;;
17949;SDS011;9100;48.700;9.316;2023-05-10T04:58:43;3.6;;;1.1;;
17949;SDS011;9100;48.700;9.316;2023-05-10T04:59:43;3.6;;;1.1;;
17949;SDS011;9100;48.700;9.316;2023-05-10T04:59:48;2.2;;;0.9;;
17949;SDS011;9100;48.700;9.316;2023-05-10T05:00:43;2.2;;;0.9;;
17949;SDS011;9100;48.700;9.316;2023-05-10T05:01:43;2.2;;;0.9;;
17949;SDS011;9100;48.700;9.316;2023-05-10T05:02:43;2.2;;;0.9;;
17949;SDS011;9100;48.700;9.316;2023-05-10T05:03:43;2.2;;;0.9;;
17949;SDS011;9100;48.700;9.316;2023-05-10T05:04:43;2.2;;;0.9;;
17949;SDS011;9100;48.700;9.316;2023-05-10T05:04:48;1.2;;;1.1;;
17949;SDS011;9100;48.700;9.316;2023-05-10T05:05:43;1.2;;;1.1;;
17949;SDS011;9100;48.700;9.316;2023-05-10T05:06:43;1.2;;;1.1;;
17949;SDS011;9100;48.700;9.316;2023-05-10T05:07:43;1.2;;;1.1;;
17949;SDS011;9100;48.700;9.316;2023-05-10T05:08:43;1.2;;;1.1;;
17949;SDS011;9100;48.700;9.316;2023-05-10T05:09:43;1.2;;;1.1;;
17949;SDS011;9100;48.700;9.316;2023-05-10T05:09:48;1.2;;;1.1;;
17949;SDS011;9100;48.700;9.316;2023-05-10T05:10:43;1.2;;;1.1;;
17949;SDS011;9100;48.700;9.316;2023-05-10T05:11:43;1.2;;;1.1;;
17949;SDS011;9100;48.700;9.316;2023-05-10T05:12:43;1.2;;;1.1;;
17949;SDS011;9100;48.700;9.316;2023-05-10T05:13:43;1.2;;;1.1;;
17949;SDS011;9100;48.700;9.316;2023-05-10T05:14:43;1.2;;;1.1;;
17949;SDS011;9100;48.700;9.316;2023-05-10T05:14:48;1.4;;;1.1;;
17949;SDS011;9100;48.700;9.316;2023-05-10T05:15:43;1.4;;;1.1;;
17949;SDS011;9100;48.700;9.316;2023-05-10T05:16:43;1.4;;;1.1;;